CheckWX is a tool to help pilots better visualize weather data.  It is not intended as a substitute for an official pre-flight weather briefing.

03:32:18 UTC

OEDR METAR
King Abdulaziz Air Base Airport
Saudi Arabia
Current

32 mins ago

OEDR 220300Z 28005KT 7000 NSC 30/14 Q0996 NOSIG
Observed
Jul-22 @ 03:00 UTC
Wind
  • 280° at 5 KTS
Visibility
7,000 meters
Flight Rules
MVFR
Cloud Levels
  • Clear skies
Temperature
30°C / 86°F
Dewpoint
14°C / 57°F
Humidity
38%
Altimeter
29.41" Hg
Pressure
995.92 hPa
Previous

2 hours ago

OEDR 220200Z 27007KT 6000 NSC 31/12 Q0996 NOSIG
Observed
Jul-22 @ 02:00 UTC
Wind
  • 270° at 7 KTS
Visibility
6,000 meters
Flight Rules
MVFR
Cloud Levels
  • Clear skies
Temperature
31°C / 88°F
Dewpoint
12°C / 54°F
Humidity
31%
Altimeter
29.41" Hg
Pressure
995.92 hPa
Previous

4 hours ago

OEDR 220000Z 00000KT CAVOK 30/18 Q0996 NOSIG
Observed
Jul-22 @ 00:00 UTC
Visibility
10,000+ meters
Flight Rules
VFR
Cloud Levels
  • Clear skies
Temperature
30°C / 86°F
Dewpoint
18°C / 64°F
Heat Index
31°C / 88°F
Humidity
49%
Altimeter
29.41" Hg
Pressure
995.92 hPa